sensor_id;sensor_type;location;lat;lon;timestamp;P1;P2;P0
44312;PMS5003;38833;51.142;-0.974;2024-01-25T00:01:51;0;0;
44312;PMS5003;38833;51.142;-0.974;2024-01-25T00:04:24;5;1;
44312;PMS5003;38833;51.142;-0.974;2024-01-25T00:06:57;5;2;
44312;PMS5003;38833;51.142;-0.974;2024-01-25T00:09:30;1;1;
44312;PMS5003;38833;51.142;-0.974;2024-01-25T00:12:04;5;2;
44312;PMS5003;38833;51.142;-0.974;2024-01-25T00:14:38;3;1;
44312;PMS5003;38833;51.142;-0.974;2024-01-25T00:17:12;3;2;
44312;PMS5003;38833;51.142;-0.974;2024-01-25T00:19:45;4;1;
44312;PMS5003;38833;51.142;-0.974;2024-01-25T00:22:18;2;0;
44312;PMS5003;38833;51.142;-0.974;2024-01-25T00:24:52;1;1;
44312;PMS5003;38833;51.142;-0.974;2024-01-25T00:27:25;4;2;
44312;PMS5003;38833;51.142;-0.974;2024-01-25T00:29:59;5;3;
44312;PMS5003;38833;51.142;-0.974;2024-01-25T00:32:32;5;4;
44312;PMS5003;38833;51.142;-0.974;2024-01-25T00:35:06;4;4;
44312;PMS5003;38833;51.142;-0.974;2024-01-25T00:37:40;6;5;
44312;PMS5003;38833;51.142;-0.974;2024-01-25T00:40:14;3;3;
44312;PMS5003;38833;51.142;-0.974;2024-01-25T00:42:48;3;2;
44312;PMS5003;38833;51.142;-0.974;2024-01-25T00:45:23;1;1;
44312;PMS5003;38833;51.142;-0.974;2024-01-25T00:47:57;1;1;
44312;PMS5003;38833;51.142;-0.974;2024-01-25T00:50:31;2;1;
44312;PMS5003;38833;51.142;-0.974;2024-01-25T00:53:05;2;1;
44312;PMS5003;38833;51.142;-0.974;2024-01-25T00:55:39;3;3;
44312;PMS5003;38833;51.142;-0.974;2024-01-25T00:58:13;3;2;
44312;PMS5003;38833;51.142;-0.974;2024-01-25T01:00:46;7;7;
44312;PMS5003;38833;51.142;-0.974;2024-01-25T01:03:20;9;9;
44312;PMS5003;38833;51.142;-0.974;2024-01-25T01:05:54;10;8;
44312;PMS5003;38833;51.142;-0.974;2024-01-25T01:08:28;9;8;
44312;PMS5003;38833;51.142;-0.974;2024-01-25T01:11:02;5;5;
44312;PMS5003;38833;51.142;-0.974;2024-01-25T01:13:36;10;9;
44312;PMS5003;38833;51.142;-0.974;2024-01-25T01:16:09;19;19;
44312;PMS5003;38833;51.142;-0.974;2024-01-25T01:18:43;18;15;
44312;PMS5003;38833;51.142;-0.974;2024-01-25T01:21:16;4;1;
44312;PMS5003;38833;51.142;-0.974;2024-01-25T01:23:49;1;1;
44312;PMS5003;38833;51.142;-0.974;2024-01-25T01:26:23;2;1;
44312;PMS5003;38833;51.142;-0.974;2024-01-25T01:28:56;1;0;
44312;PMS5003;38833;51.142;-0.974;2024-01-25T01:31:29;3;2;
44312;PMS5003;38833;51.142;-0.974;2024-01-25T01:34:03;1;1;
44312;PMS5003;38833;51.142;-0.974;2024-01-25T01:36:36;1;1;
44312;PMS5003;38833;51.142;-0.974;2024-01-25T01:39:10;1;1;
44312;PMS5003;38833;51.142;-0.974;2024-01-25T01:41:46;3;1;
44312;PMS5003;38833;51.142;-0.974;2024-01-25T01:44:20;2;2;
44312;PMS5003;38833;51.142;-0.974;2024-01-25T01:46:54;4;3;
44312;PMS5003;38833;51.142;-0.974;2024-01-25T01:49:27;2;2;
44312;PMS5003;38833;51.142;-0.974;2024-01-25T01:52:01;5;1;
44312;PMS5003;38833;51.142;-0.974;2024-01-25T01:54:35;2;2;
44312;PMS5003;38833;51.142;-0.974;2024-01-25T01:57:09;4;3;
44312;PMS5003;38833;51.142;-0.974;2024-01-25T01:59:42;3;2;
44312;PMS5003;38833;51.142;-0.974;2024-01-25T02:02:16;4;3;
44312;PMS5003;38833;51.142;-0.974;2024-01-25T02:04:49;2;2;
44312;PMS5003;38833;51.142;-0.974;2024-01-25T02:07:23;3;2;
44312;PMS5003;38833;51.142;-0.974;2024-01-25T02:09:56;3;3;
44312;PMS5003;38833;51.142;-0.974;2024-01-25T02:12:29;3;3;
44312;PMS5003;38833;51.142;-0.974;2024-01-25T02:15:03;4;4;
44312;PMS5003;38833;51.142;-0.974;2024-01-25T02:17:37;4;4;
44312;PMS5003;38833;51.142;-0.974;2024-01-25T02:20:11;5;4;
44312;PMS5003;38833;51.142;-0.974;2024-01-25T02:22:44;4;4;
44312;PMS5003;38833;51.142;-0.974;2024-01-25T02:25:17;3;3;
44312;PMS5003;38833;51.142;-0.974;2024-01-25T02:27:51;4;2;
44312;PMS5003;38833;51.142;-0.974;2024-01-25T02:30:25;3;3;
44312;PMS5003;38833;51.142;-0.974;2024-01-25T02:32:58;4;4;
44312;PMS5003;38833;51.142;-0.974;2024-01-25T02:35:32;3;3;
44312;PMS5003;38833;51.142;-0.974;2024-01-25T02:38:05;6;5;
44312;PMS5003;38833;51.142;-0.974;2024-01-25T02:40:38;3;3;
44312;PMS5003;38833;51.142;-0.974;2024-01-25T02:43:12;3;3;
44312;PMS5003;38833;51.142;-0.974;2024-01-25T02:45:45;4;4;
44312;PMS5003;38833;51.142;-0.974;2024-01-25T02:48:18;4;4;
44312;PMS5003;38833;51.142;-0.974;2024-01-25T02:50:52;4;4;
44312;PMS5003;38833;51.142;-0.974;2024-01-25T02:53:25;4;2;
44312;PMS5003;38833;51.142;-0.974;2024-01-25T02:55:58;4;4;
44312;PMS5003;38833;51.142;-0.974;2024-01-25T02:58:32;4;4;
44312;PMS5003;38833;51.142;-0.974;2024-01-25T03:01:05;4;3;
44312;PMS5003;38833;51.142;-0.974;2024-01-25T03:03:38;5;4;
44312;PMS5003;38833;51.142;-0.974;2024-01-25T03:06:11;4;4;
44312;PMS5003;38833;51.142;-0.974;2024-01-25T03:08:45;4;4;
44312;PMS5003;38833;51.142;-0.974;2024-01-25T03:11:18;3;3;
44312;PMS5003;38833;51.142;-0.974;2024-01-25T03:13:51;3;3;
44312;PMS5003;38833;51.142;-0.974;2024-01-25T03:16:25;3;3;
44312;PMS5003;38833;51.142;-0.974;2024-01-25T03:18:59;6;3;
44312;PMS5003;38833;51.142;-0.974;2024-01-25T03:21:32;3;3;
44312;PMS5003;38833;51.142;-0.974;2024-01-25T03:24:06;5;4;
44312;PMS5003;38833;51.142;-0.974;2024-01-25T03:26:39;4;3;
44312;PMS5003;38833;51.142;-0.974;2024-01-25T03:29:12;3;3;
44312;PMS5003;38833;51.142;-0.974;2024-01-25T03:31:45;4;3;
44312;PMS5003;38833;51.142;-0.974;2024-01-25T03:34:19;4;2;
44312;PMS5003;38833;51.142;-0.974;2024-01-25T03:36:53;3;3;
44312;PMS5003;38833;51.142;-0.974;2024-01-25T03:39:26;8;4;
44312;PMS5003;38833;51.142;-0.974;2024-01-25T03:41:59;4;4;
44312;PMS5003;38833;51.142;-0.974;2024-01-25T03:44:32;4;4;
44312;PMS5003;38833;51.142;-0.974;2024-01-25T03:47:06;4;4;
44312;PMS5003;38833;51.142;-0.974;2024-01-25T03:49:39;5;5;
44312;PMS5003;38833;51.142;-0.974;2024-01-25T03:52:12;3;3;
44312;PMS5003;38833;51.142;-0.974;2024-01-25T03:54:46;5;5;
44312;PMS5003;38833;51.142;-0.974;2024-01-25T03:57:19;3;3;
44312;PMS5003;38833;51.142;-0.974;2024-01-25T03:59:53;4;4;
44312;PMS5003;38833;51.142;-0.974;2024-01-25T04:02:26;5;5;
44312;PMS5003;38833;51.142;-0.974;2024-01-25T04:05:00;6;5;
44312;PMS5003;38833;51.142;-0.974;2024-01-25T04:07:33;5;4;
44312;PMS5003;38833;51.142;-0.974;2024-01-25T04:10:06;5;4;
44312;PMS5003;38833;51.142;-0.974;2024-01-25T04:12:40;4;4;
44312;PMS5003;38833;51.142;-0.974;2024-01-25T04:15:13;6;6;
44312;PMS5003;38833;51.142;-0.974;2024-01-25T04:17:47;5;5;
44312;PMS5003;38833;51.142;-0.974;2024-01-25T04:20:20;5;4;
44312;PMS5003;38833;51.142;-0.974;2024-01-25T04:22:53;3;3;
44312;PMS5003;38833;51.142;-0.974;2024-01-25T04:25:27;3;3;
44312;PMS5003;38833;51.142;-0.974;2024-01-25T04:28:00;3;3;
44312;PMS5003;38833;51.142;-0.974;2024-01-25T04:30:34;3;2;
44312;PMS5003;38833;51.142;-0.974;2024-01-25T04:33:07;4;4;
44312;PMS5003;38833;51.142;-0.974;2024-01-25T04:35:40;5;4;
44312;PMS5003;38833;51.142;-0.974;2024-01-25T04:38:13;4;3;
44312;PMS5003;38833;51.142;-0.974;2024-01-25T04:40:46;3;3;
44312;PMS5003;38833;51.142;-0.974;2024-01-25T04:43:20;2;2;
44312;PMS5003;38833;51.142;-0.974;2024-01-25T04:45:53;5;3;
44312;PMS5003;38833;51.142;-0.974;2024-01-25T04:48:26;4;3;
44312;PMS5003;38833;51.142;-0.974;2024-01-25T04:51:00;2;2;
44312;PMS5003;38833;51.142;-0.974;2024-01-25T04:53:33;3;3;
44312;PMS5003;38833;51.142;-0.974;2024-01-25T04:56:06;3;3;
44312;PMS5003;38833;51.142;-0.974;2024-01-25T04:58:39;5;3;
44312;PMS5003;38833;51.142;-0.974;2024-01-25T05:01:13;5;5;
44312;PMS5003;38833;51.142;-0.974;2024-01-25T05:03:46;7;5;
44312;PMS5003;38833;51.142;-0.974;2024-01-25T05:06:19;4;3;
44312;PMS5003;38833;51.142;-0.974;2024-01-25T05:08:53;8;5;
44312;PMS5003;38833;51.142;-0.974;2024-01-25T05:11:26;6;3;
44312;PMS5003;38833;51.142;-0.974;2024-01-25T05:13:59;4;4;
44312;PMS5003;38833;51.142;-0.974;2024-01-25T05:16:33;4;2;
44312;PMS5003;38833;51.142;-0.974;2024-01-25T05:19:06;6;4;
44312;PMS5003;38833;51.142;-0.974;2024-01-25T05:21:39;6;4;
44312;PMS5003;38833;51.142;-0.974;2024-01-25T05:24:13;3;3;
44312;PMS5003;38833;51.142;-0.974;2024-01-25T05:26:46;9;5;
44312;PMS5003;38833;51.142;-0.974;2024-01-25T05:29:19;7;7;
44312;PMS5003;38833;51.142;-0.974;2024-01-25T05:31:52;6;5;
44312;PMS5003;38833;51.142;-0.974;2024-01-25T05:34:26;7;5;
44312;PMS5003;38833;51.142;-0.974;2024-01-25T05:36:59;7;7;
44312;PMS5003;38833;51.142;-0.974;2024-01-25T05:39:32;7;7;
44312;PMS5003;38833;51.142;-0.974;2024-01-25T05:42:05;4;4;
44312;PMS5003;38833;51.142;-0.974;2024-01-25T05:44:39;4;2;
44312;PMS5003;38833;51.142;-0.974;2024-01-25T05:47:12;3;2;
44312;PMS5003;38833;51.142;-0.974;2024-01-25T05:49:45;0;0;
44312;PMS5003;38833;51.142;-0.974;2024-01-25T05:52:19;0;0;
44312;PMS5003;38833;51.142;-0.974;2024-01-25T05:55:38;8;8;
44312;PMS5003;38833;51.142;-0.974;2024-01-25T05:58:13;15;13;
44312;PMS5003;38833;51.142;-0.974;2024-01-25T06:00:46;1;1;
44312;PMS5003;38833;51.142;-0.974;2024-01-25T06:03:21;2;1;
44312;PMS5003;38833;51.142;-0.974;2024-01-25T06:05:55;3;1;
44312;PMS5003;38833;51.142;-0.974;2024-01-25T06:08:29;3;1;
44312;PMS5003;38833;51.142;-0.974;2024-01-25T06:11:03;1;1;
44312;PMS5003;38833;51.142;-0.974;2024-01-25T06:13:37;0;0;
44312;PMS5003;38833;51.142;-0.974;2024-01-25T06:16:10;0;0;
44312;PMS5003;38833;51.142;-0.974;2024-01-25T06:18:44;0;0;
44312;PMS5003;38833;51.142;-0.974;2024-01-25T06:21:18;3;0;
44312;PMS5003;38833;51.142;-0.974;2024-01-25T06:23:52;1;0;
44312;PMS5003;38833;51.142;-0.974;2024-01-25T06:26:26;2;0;
44312;PMS5003;38833;51.142;-0.974;2024-01-25T06:29:00;0;0;
44312;PMS5003;38833;51.142;-0.974;2024-01-25T06:31:40;2;1;
44312;PMS5003;38833;51.142;-0.974;2024-01-25T06:34:15;0;0;
44312;PMS5003;38833;51.142;-0.974;2024-01-25T06:36:49;1;1;
44312;PMS5003;38833;51.142;-0.974;2024-01-25T06:39:23;1;1;
44312;PMS5003;38833;51.142;-0.974;2024-01-25T06:41:56;2;2;
44312;PMS5003;38833;51.142;-0.974;2024-01-25T06:44:30;2;1;
44312;PMS5003;38833;51.142;-0.974;2024-01-25T06:47:04;4;1;
44312;PMS5003;38833;51.142;-0.974;2024-01-25T06:49:38;0;0;
44312;PMS5003;38833;51.142;-0.974;2024-01-25T06:52:11;2;0;
44312;PMS5003;38833;51.142;-0.974;2024-01-25T06:54:45;0;0;
44312;PMS5003;38833;51.142;-0.974;2024-01-25T06:57:19;3;1;
44312;PMS5003;38833;51.142;-0.974;2024-01-25T06:59:54;1;1;
44312;PMS5003;38833;51.142;-0.974;2024-01-25T07:02:27;0;0;
44312;PMS5003;38833;51.142;-0.974;2024-01-25T07:05:01;0;0;
44312;PMS5003;38833;51.142;-0.974;2024-01-25T07:07:34;1;1;
44312;PMS5003;38833;51.142;-0.974;2024-01-25T07:10:08;0;0;
44312;PMS5003;38833;51.142;-0.974;2024-01-25T07:12:42;3;1;
44312;PMS5003;38833;51.142;-0.974;2024-01-25T07:15:16;3;2;
44312;PMS5003;38833;51.142;-0.974;2024-01-25T07:17:51;1;1;
44312;PMS5003;38833;51.142;-0.974;2024-01-25T07:20:25;0;0;
44312;PMS5003;38833;51.142;-0.974;2024-01-25T07:22:58;8;2;
44312;PMS5003;38833;51.142;-0.974;2024-01-25T07:25:32;2;2;
44312;PMS5003;38833;51.142;-0.974;2024-01-25T07:28:06;4;2;
44312;PMS5003;38833;51.142;-0.974;2024-01-25T07:30:39;1;1;
44312;PMS5003;38833;51.142;-0.974;2024-01-25T07:33:13;1;1;
44312;PMS5003;38833;51.142;-0.974;2024-01-25T07:35:47;1;0;
44312;PMS5003;38833;51.142;-0.974;2024-01-25T07:38:21;2;2;
44312;PMS5003;38833;51.142;-0.974;2024-01-25T07:40:55;1;1;
44312;PMS5003;38833;51.142;-0.974;2024-01-25T07:43:29;3;2;
44312;PMS5003;38833;51.142;-0.974;2024-01-25T07:46:03;2;2;
44312;PMS5003;38833;51.142;-0.974;2024-01-25T07:48:38;3;1;
44312;PMS5003;38833;51.142;-0.974;2024-01-25T07:51:12;0;0;
44312;PMS5003;38833;51.142;-0.974;2024-01-25T07:53:47;4;3;
44312;PMS5003;38833;51.142;-0.974;2024-01-25T07:56:21;4;1;
44312;PMS5003;38833;51.142;-0.974;2024-01-25T07:58:55;3;1;
44312;PMS5003;38833;51.142;-0.974;2024-01-25T08:01:29;3;2;
44312;PMS5003;38833;51.142;-0.974;2024-01-25T08:04:03;1;1;
44312;PMS5003;38833;51.142;-0.974;2024-01-25T08:06:37;2;1;
44312;PMS5003;38833;51.142;-0.974;2024-01-25T08:09:10;5;1;
44312;PMS5003;38833;51.142;-0.974;2024-01-25T08:11:44;1;1;
44312;PMS5003;38833;51.142;-0.974;2024-01-25T08:14:18;2;1;
44312;PMS5003;38833;51.142;-0.974;2024-01-25T08:16:52;1;1;
44312;PMS5003;38833;51.142;-0.974;2024-01-25T08:19:26;3;3;
44312;PMS5003;38833;51.142;-0.974;2024-01-25T08:22:00;1;1;
44312;PMS5003;38833;51.142;-0.974;2024-01-25T08:24:33;4;3;
44312;PMS5003;38833;51.142;-0.974;2024-01-25T08:27:07;7;5;
44312;PMS5003;38833;51.142;-0.974;2024-01-25T08:33:53;14;12;
44312;PMS5003;38833;51.142;-0.974;2024-01-25T08:36:26;30;29;
44312;PMS5003;38833;51.142;-0.974;2024-01-25T08:39:00;42;30;
44312;PMS5003;38833;51.142;-0.974;2024-01-25T08:41:33;26;26;
44312;PMS5003;38833;51.142;-0.974;2024-01-25T08:44:06;27;27;
44312;PMS5003;38833;51.142;-0.974;2024-01-25T08:46:40;26;26;
44312;PMS5003;38833;51.142;-0.974;2024-01-25T08:49:13;26;25;
44312;PMS5003;38833;51.142;-0.974;2024-01-25T08:51:46;22;19;
44312;PMS5003;38833;51.142;-0.974;2024-01-25T08:54:20;20;19;
44312;PMS5003;38833;51.142;-0.974;2024-01-25T08:56:53;24;17;
44312;PMS5003;38833;51.142;-0.974;2024-01-25T08:59:26;18;14;
44312;PMS5003;38833;51.142;-0.974;2024-01-25T09:02:00;17;17;
44312;PMS5003;38833;51.142;-0.974;2024-01-25T09:04:33;16;15;
44312;PMS5003;38833;51.142;-0.974;2024-01-25T09:07:07;16;15;
44312;PMS5003;38833;51.142;-0.974;2024-01-25T09:09:40;16;16;
44312;PMS5003;38833;51.142;-0.974;2024-01-25T09:12:13;16;14;
44312;PMS5003;38833;51.142;-0.974;2024-01-25T09:14:47;19;14;
44312;PMS5003;38833;51.142;-0.974;2024-01-25T09:17:21;12;12;
44312;PMS5003;38833;51.142;-0.974;2024-01-25T09:19:54;13;13;
44312;PMS5003;38833;51.142;-0.974;2024-01-25T09:22:27;14;12;
44312;PMS5003;38833;51.142;-0.974;2024-01-25T09:25:01;11;11;
44312;PMS5003;38833;51.142;-0.974;2024-01-25T09:27:34;11;10;
44312;PMS5003;38833;51.142;-0.974;2024-01-25T09:30:07;13;11;
44312;PMS5003;38833;51.142;-0.974;2024-01-25T09:32:41;13;9;
44312;PMS5003;38833;51.142;-0.974;2024-01-25T09:35:15;7;7;
44312;PMS5003;38833;51.142;-0.974;2024-01-25T09:37:48;11;9;
44312;PMS5003;38833;51.142;-0.974;2024-01-25T09:40:22;8;8;
44312;PMS5003;38833;51.142;-0.974;2024-01-25T09:42:55;8;7;
44312;PMS5003;38833;51.142;-0.974;2024-01-25T09:45:30;7;7;
44312;PMS5003;38833;51.142;-0.974;2024-01-25T09:48:04;10;9;
44312;PMS5003;38833;51.142;-0.974;2024-01-25T09:50:38;8;8;
44312;PMS5003;38833;51.142;-0.974;2024-01-25T09:53:11;7;7;
44312;PMS5003;38833;51.142;-0.974;2024-01-25T09:55:56;7;7;
44312;PMS5003;38833;51.142;-0.974;2024-01-25T09:58:37;7;6;
44312;PMS5003;38833;51.142;-0.974;2024-01-25T10:01:12;8;6;
44312;PMS5003;38833;51.142;-0.974;2024-01-25T10:03:46;7;5;
44312;PMS5003;38833;51.142;-0.974;2024-01-25T10:06:20;8;7;
44312;PMS5003;38833;51.142;-0.974;2024-01-25T10:08:54;4;4;
44312;PMS5003;38833;51.142;-0.974;2024-01-25T10:11:28;6;5;
44312;PMS5003;38833;51.142;-0.974;2024-01-25T10:14:01;3;3;
44312;PMS5003;38833;51.142;-0.974;2024-01-25T10:16:35;5;5;
44312;PMS5003;38833;51.142;-0.974;2024-01-25T10:19:11;6;5;
44312;PMS5003;38833;51.142;-0.974;2024-01-25T10:21:45;6;4;
44312;PMS5003;38833;51.142;-0.974;2024-01-25T10:24:19;3;3;
44312;PMS5003;38833;51.142;-0.974;2024-01-25T10:26:53;6;4;
44312;PMS5003;38833;51.142;-0.974;2024-01-25T10:29:27;4;3;
44312;PMS5003;38833;51.142;-0.974;2024-01-25T10:32:00;3;3;
44312;PMS5003;38833;51.142;-0.974;2024-01-25T10:34:35;4;4;
44312;PMS5003;38833;51.142;-0.974;2024-01-25T10:37:09;6;4;
44312;PMS5003;38833;51.142;-0.974;2024-01-25T10:39:46;5;4;
44312;PMS5003;38833;51.142;-0.974;2024-01-25T10:42:20;4;4;
44312;PMS5003;38833;51.142;-0.974;2024-01-25T10:44:54;3;3;
44312;PMS5003;38833;51.142;-0.974;2024-01-25T10:47:27;3;3;
44312;PMS5003;38833;51.142;-0.974;2024-01-25T10:50:01;2;1;
44312;PMS5003;38833;51.142;-0.974;2024-01-25T10:52:34;4;4;
44312;PMS5003;38833;51.142;-0.974;2024-01-25T10:55:09;2;2;
44312;PMS5003;38833;51.142;-0.974;2024-01-25T10:57:45;5;3;
44312;PMS5003;38833;51.142;-0.974;2024-01-25T11:00:18;3;1;
44312;PMS5003;38833;51.142;-0.974;2024-01-25T11:02:53;3;3;
44312;PMS5003;38833;51.142;-0.974;2024-01-25T11:05:28;6;3;
44312;PMS5003;38833;51.142;-0.974;2024-01-25T11:08:01;3;3;
44312;PMS5003;38833;51.142;-0.974;2024-01-25T11:10:35;4;3;
44312;PMS5003;38833;51.142;-0.974;2024-01-25T11:13:13;4;1;
44312;PMS5003;38833;51.142;-0.974;2024-01-25T11:15:46;4;3;
44312;PMS5003;38833;51.142;-0.974;2024-01-25T11:18:20;3;3;
44312;PMS5003;38833;51.142;-0.974;2024-01-25T11:21:00;4;2;
44312;PMS5003;38833;51.142;-0.974;2024-01-25T11:23:33;4;3;
44312;PMS5003;38833;51.142;-0.974;2024-01-25T11:26:06;4;3;
44312;PMS5003;38833;51.142;-0.974;2024-01-25T11:28:41;4;2;
44312;PMS5003;38833;51.142;-0.974;2024-01-25T11:31:14;3;1;
44312;PMS5003;38833;51.142;-0.974;2024-01-25T11:33:48;4;1;
44312;PMS5003;38833;51.142;-0.974;2024-01-25T11:36:22;3;3;
44312;PMS5003;38833;51.142;-0.974;2024-01-25T11:38:55;3;1;
44312;PMS5003;38833;51.142;-0.974;2024-01-25T11:41:30;2;2;
44312;PMS5003;38833;51.142;-0.974;2024-01-25T11:44:04;5;2;
44312;PMS5003;38833;51.142;-0.974;2024-01-25T11:46:37;2;2;
44312;PMS5003;38833;51.142;-0.974;2024-01-25T11:49:10;2;2;
44312;PMS5003;38833;51.142;-0.974;2024-01-25T11:51:44;1;0;
44312;PMS5003;38833;51.142;-0.974;2024-01-25T11:54:18;2;2;
44312;PMS5003;38833;51.142;-0.974;2024-01-25T11:56:51;3;2;
44312;PMS5003;38833;51.142;-0.974;2024-01-25T11:59:25;3;2;
44312;PMS5003;38833;51.142;-0.974;2024-01-25T12:01:58;2;2;
44312;PMS5003;38833;51.142;-0.974;2024-01-25T12:04:32;4;2;
44312;PMS5003;38833;51.142;-0.974;2024-01-25T12:07:06;1;1;
44312;PMS5003;38833;51.142;-0.974;2024-01-25T12:09:40;2;1;
44312;PMS5003;38833;51.142;-0.974;2024-01-25T12:12:13;3;1;
44312;PMS5003;38833;51.142;-0.974;2024-01-25T12:14:48;2;0;
44312;PMS5003;38833;51.142;-0.974;2024-01-25T12:17:21;1;1;
44312;PMS5003;38833;51.142;-0.974;2024-01-25T12:19:55;2;2;
44312;PMS5003;38833;51.142;-0.974;2024-01-25T12:22:29;1;1;
44312;PMS5003;38833;51.142;-0.974;2024-01-25T12:25:03;2;2;
44312;PMS5003;38833;51.142;-0.974;2024-01-25T12:27:40;2;1;
44312;PMS5003;38833;51.142;-0.974;2024-01-25T12:30:13;4;1;
44312;PMS5003;38833;51.142;-0.974;2024-01-25T12:32:47;2;2;
44312;PMS5003;38833;51.142;-0.974;2024-01-25T12:35:21;4;2;
44312;PMS5003;38833;51.142;-0.974;2024-01-25T12:37:54;2;2;
44312;PMS5003;38833;51.142;-0.974;2024-01-25T12:40:28;0;0;
44312;PMS5003;38833;51.142;-0.974;2024-01-25T12:43:01;3;3;
44312;PMS5003;38833;51.142;-0.974;2024-01-25T12:45:34;2;2;
44312;PMS5003;38833;51.142;-0.974;2024-01-25T12:48:08;1;1;
44312;PMS5003;38833;51.142;-0.974;2024-01-25T12:50:41;1;1;
44312;PMS5003;38833;51.142;-0.974;2024-01-25T12:53:15;2;2;
44312;PMS5003;38833;51.142;-0.974;2024-01-25T12:55:48;4;2;
44312;PMS5003;38833;51.142;-0.974;2024-01-25T12:58:22;3;2;
44312;PMS5003;38833;51.142;-0.974;2024-01-25T13:00:55;6;6;
44312;PMS5003;38833;51.142;-0.974;2024-01-25T13:03:28;3;3;
44312;PMS5003;38833;51.142;-0.974;2024-01-25T13:06:02;5;2;
44312;PMS5003;38833;51.142;-0.974;2024-01-25T13:08:35;5;5;
44312;PMS5003;38833;51.142;-0.974;2024-01-25T13:11:09;14;14;
44312;PMS5003;38833;51.142;-0.974;2024-01-25T13:13:43;13;1;
44312;PMS5003;38833;51.142;-0.974;2024-01-25T13:16:17;13;13;
44312;PMS5003;38833;51.142;-0.974;2024-01-25T13:18:50;14;13;
44312;PMS5003;38833;51.142;-0.974;2024-01-25T13:21:23;2;2;
44312;PMS5003;38833;51.142;-0.974;2024-01-25T13:23:58;3;2;
44312;PMS5003;38833;51.142;-0.974;2024-01-25T13:26:32;3;1;
44312;PMS5003;38833;51.142;-0.974;2024-01-25T13:29:06;2;2;
44312;PMS5003;38833;51.142;-0.974;2024-01-25T13:31:40;1;1;
44312;PMS5003;38833;51.142;-0.974;2024-01-25T13:34:14;1;1;
44312;PMS5003;38833;51.142;-0.974;2024-01-25T13:36:48;1;1;
44312;PMS5003;38833;51.142;-0.974;2024-01-25T13:39:21;0;0;
44312;PMS5003;38833;51.142;-0.974;2024-01-25T13:41:54;1;1;
44312;PMS5003;38833;51.142;-0.974;2024-01-25T13:44:27;2;1;
44312;PMS5003;38833;51.142;-0.974;2024-01-25T13:47:01;1;1;
44312;PMS5003;38833;51.142;-0.974;2024-01-25T13:49:34;1;1;
44312;PMS5003;38833;51.142;-0.974;2024-01-25T13:52:07;3;1;
44312;PMS5003;38833;51.142;-0.974;2024-01-25T13:54:51;1;1;
44312;PMS5003;38833;51.142;-0.974;2024-01-25T13:57:24;3;1;
44312;PMS5003;38833;51.142;-0.974;2024-01-25T13:59:57;2;2;
44312;PMS5003;38833;51.142;-0.974;2024-01-25T14:02:31;1;1;
44312;PMS5003;38833;51.142;-0.974;2024-01-25T14:05:04;2;2;
44312;PMS5003;38833;51.142;-0.974;2024-01-25T14:07:38;2;2;
44312;PMS5003;38833;51.142;-0.974;2024-01-25T14:10:12;0;0;
44312;PMS5003;38833;51.142;-0.974;2024-01-25T14:12:45;3;3;
44312;PMS5003;38833;51.142;-0.974;2024-01-25T14:15:19;4;4;
44312;PMS5003;38833;51.142;-0.974;2024-01-25T14:17:53;6;6;
44312;PMS5003;38833;51.142;-0.974;2024-01-25T14:20:26;9;9;
44312;PMS5003;38833;51.142;-0.974;2024-01-25T14:23:00;9;9;
44312;PMS5003;38833;51.142;-0.974;2024-01-25T14:25:33;12;11;
44312;PMS5003;38833;51.142;-0.974;2024-01-25T14:28:06;11;11;
44312;PMS5003;38833;51.142;-0.974;2024-01-25T14:30:40;13;11;
44312;PMS5003;38833;51.142;-0.974;2024-01-25T14:33:13;12;12;
44312;PMS5003;38833;51.142;-0.974;2024-01-25T14:35:47;10;10;
44312;PMS5003;38833;51.142;-0.974;2024-01-25T14:38:20;6;6;
44312;PMS5003;38833;51.142;-0.974;2024-01-25T14:40:54;2;2;
44312;PMS5003;38833;51.142;-0.974;2024-01-25T14:43:27;1;1;
44312;PMS5003;38833;51.142;-0.974;2024-01-25T14:46:00;1;1;
44312;PMS5003;38833;51.142;-0.974;2024-01-25T14:48:34;1;1;
44312;PMS5003;38833;51.142;-0.974;2024-01-25T14:51:07;4;1;
44312;PMS5003;38833;51.142;-0.974;2024-01-25T14:53:40;2;2;
44312;PMS5003;38833;51.142;-0.974;2024-01-25T14:56:14;1;1;
44312;PMS5003;38833;51.142;-0.974;2024-01-25T14:58:47;1;1;
44312;PMS5003;38833;51.142;-0.974;2024-01-25T15:01:21;1;1;
44312;PMS5003;38833;51.142;-0.974;2024-01-25T15:03:54;1;1;
44312;PMS5003;38833;51.142;-0.974;2024-01-25T15:06:27;4;2;
44312;PMS5003;38833;51.142;-0.974;2024-01-25T15:09:02;0;0;
44312;PMS5003;38833;51.142;-0.974;2024-01-25T15:11:36;1;1;
44312;PMS5003;38833;51.142;-0.974;2024-01-25T15:14:09;0;0;
44312;PMS5003;38833;51.142;-0.974;2024-01-25T15:16:42;2;1;
44312;PMS5003;38833;51.142;-0.974;2024-01-25T15:19:16;1;1;
44312;PMS5003;38833;51.142;-0.974;2024-01-25T15:21:49;1;1;
44312;PMS5003;38833;51.142;-0.974;2024-01-25T15:24:23;3;2;
44312;PMS5003;38833;51.142;-0.974;2024-01-25T15:26:56;4;2;
44312;PMS5003;38833;51.142;-0.974;2024-01-25T15:29:29;2;2;
44312;PMS5003;38833;51.142;-0.974;2024-01-25T15:32:03;3;2;
44312;PMS5003;38833;51.142;-0.974;2024-01-25T15:34:37;1;1;
44312;PMS5003;38833;51.142;-0.974;2024-01-25T15:37:10;0;0;
44312;PMS5003;38833;51.142;-0.974;2024-01-25T15:39:43;1;1;
44312;PMS5003;38833;51.142;-0.974;2024-01-25T15:42:16;1;1;
44312;PMS5003;38833;51.142;-0.974;2024-01-25T15:44:50;0;0;
44312;PMS5003;38833;51.142;-0.974;2024-01-25T15:47:23;0;0;
44312;PMS5003;38833;51.142;-0.974;2024-01-25T15:49:56;0;0;
44312;PMS5003;38833;51.142;-0.974;2024-01-25T15:52:30;1;1;
44312;PMS5003;38833;51.142;-0.974;2024-01-25T15:55:04;1;1;
44312;PMS5003;38833;51.142;-0.974;2024-01-25T15:57:37;0;0;
44312;PMS5003;38833;51.142;-0.974;2024-01-25T16:00:11;1;1;
44312;PMS5003;38833;51.142;-0.974;2024-01-25T16:02:45;1;1;
44312;PMS5003;38833;51.142;-0.974;2024-01-25T16:05:19;0;0;
44312;PMS5003;38833;51.142;-0.974;2024-01-25T16:07:52;0;0;
44312;PMS5003;38833;51.142;-0.974;2024-01-25T16:10:25;0;0;
44312;PMS5003;38833;51.142;-0.974;2024-01-25T16:12:59;0;0;
44312;PMS5003;38833;51.142;-0.974;2024-01-25T16:15:32;0;0;
44312;PMS5003;38833;51.142;-0.974;2024-01-25T16:18:05;0;0;
44312;PMS5003;38833;51.142;-0.974;2024-01-25T16:20:39;0;0;
44312;PMS5003;38833;51.142;-0.974;2024-01-25T16:23:12;0;0;
44312;PMS5003;38833;51.142;-0.974;2024-01-25T16:25:45;0;0;
44312;PMS5003;38833;51.142;-0.974;2024-01-25T16:28:18;0;0;
44312;PMS5003;38833;51.142;-0.974;2024-01-25T16:30:52;0;0;
44312;PMS5003;38833;51.142;-0.974;2024-01-25T16:33:25;1;0;
44312;PMS5003;38833;51.142;-0.974;2024-01-25T16:35:59;0;0;
44312;PMS5003;38833;51.142;-0.974;2024-01-25T16:38:32;0;0;
44312;PMS5003;38833;51.142;-0.974;2024-01-25T16:41:06;1;1;
44312;PMS5003;38833;51.142;-0.974;2024-01-25T16:43:39;0;0;
44312;PMS5003;38833;51.142;-0.974;2024-01-25T16:46:13;0;0;
44312;PMS5003;38833;51.142;-0.974;2024-01-25T16:48:46;2;0;
44312;PMS5003;38833;51.142;-0.974;2024-01-25T16:51:20;2;1;
44312;PMS5003;38833;51.142;-0.974;2024-01-25T16:53:53;0;0;
44312;PMS5003;38833;51.142;-0.974;2024-01-25T16:56:26;1;0;
44312;PMS5003;38833;51.142;-0.974;2024-01-25T16:59:00;1;1;
44312;PMS5003;38833;51.142;-0.974;2024-01-25T17:01:34;2;2;
44312;PMS5003;38833;51.142;-0.974;2024-01-25T17:04:07;3;3;
44312;PMS5003;38833;51.142;-0.974;2024-01-25T17:06:41;5;5;
44312;PMS5003;38833;51.142;-0.974;2024-01-25T17:09:14;8;8;
44312;PMS5003;38833;51.142;-0.974;2024-01-25T17:11:47;6;6;
44312;PMS5003;38833;51.142;-0.974;2024-01-25T17:14:21;8;8;
44312;PMS5003;38833;51.142;-0.974;2024-01-25T17:16:54;7;7;
44312;PMS5003;38833;51.142;-0.974;2024-01-25T17:19:27;8;8;